createdAt,value
2018-05-17T00:00:50.207Z,12.00
2018-05-17T00:03:17.727Z,12.00
2018-05-17T00:05:45.223Z,12.00
2018-05-17T00:08:12.747Z,12.00
2018-05-17T00:10:40.244Z,11.90
2018-05-17T00:13:07.764Z,11.90
2018-05-17T00:15:35.272Z,12.00
2018-05-17T00:18:02.777Z,11.90
2018-05-17T00:20:30.299Z,11.90
2018-05-17T00:22:58.571Z,12.00
2018-05-17T00:25:26.090Z,11.90
2018-05-17T00:27:53.588Z,11.90
2018-05-17T00:30:21.091Z,11.80
2018-05-17T00:32:48.612Z,11.80
2018-05-17T00:35:16.146Z,11.90
2018-05-17T00:37:43.670Z,11.90
2018-05-17T00:40:11.178Z,11.90
2018-05-17T00:42:38.688Z,11.80
2018-05-17T00:45:06.194Z,11.90
2018-05-17T00:47:33.707Z,11.90
2018-05-17T00:50:01.238Z,11.90
2018-05-17T00:52:29.607Z,11.80
2018-05-17T00:54:57.057Z,11.70
2018-05-17T00:57:24.784Z,11.90
2018-05-17T00:59:52.311Z,11.90
2018-05-17T01:02:20.574Z,11.80
2018-05-17T01:04:48.858Z,11.90
2018-05-17T01:07:17.122Z,11.90
2018-05-17T01:09:44.638Z,11.90
2018-05-17T01:12:12.157Z,12.00
2018-05-17T01:14:40.427Z,11.90
2018-05-17T01:17:08.722Z,11.90
2018-05-17T01:19:36.237Z,11.80
2018-05-17T01:22:03.749Z,12.00
2018-05-17T01:24:31.256Z,11.90
2018-05-17T01:26:58.807Z,11.80
2018-05-17T01:29:26.317Z,11.90
2018-05-17T01:31:53.819Z,11.90
2018-05-17T01:34:21.339Z,11.80
2018-05-17T01:37:00.670Z,11.80
2018-05-17T01:39:28.227Z,11.80
2018-05-17T01:41:56.488Z,11.80
2018-05-17T01:44:24.008Z,11.70
2018-05-17T01:46:51.509Z,11.80
2018-05-17T01:49:19.030Z,11.80
2018-05-17T01:51:46.539Z,11.80
2018-05-17T01:54:14.814Z,11.70
2018-05-17T01:56:43.101Z,11.70
2018-05-17T01:59:10.637Z,11.60
2018-05-17T02:01:38.159Z,11.70
2018-05-17T02:04:05.719Z,11.70
2018-05-17T02:06:33.240Z,11.60
2018-05-17T02:09:00.765Z,11.70
2018-05-17T02:11:28.274Z,11.60
2018-05-17T02:13:55.811Z,11.60
2018-05-17T02:16:23.320Z,11.60
2018-05-17T02:18:50.854Z,11.60
2018-05-17T02:21:18.354Z,11.60
2018-05-17T02:23:45.859Z,11.60
2018-05-17T02:26:14.151Z,11.60
2018-05-17T02:28:41.660Z,11.50
2018-05-17T02:31:09.187Z,11.60
2018-05-17T02:33:36.702Z,11.60
2018-05-17T02:36:04.974Z,11.60
2018-05-17T02:38:32.507Z,11.60
2018-05-17T02:41:00.011Z,11.60
2018-05-17T02:43:28.306Z,11.60
2018-05-17T02:45:55.815Z,11.50
2018-05-17T02:48:23.316Z,11.60
2018-05-17T02:50:50.836Z,11.60
2018-05-17T02:53:18.348Z,11.60
2018-05-17T02:55:45.873Z,11.50
2018-05-17T02:58:14.137Z,11.50
2018-05-17T03:00:42.439Z,11.60
2018-05-17T03:03:10.710Z,11.50
2018-05-17T03:05:38.977Z,11.50
2018-05-17T03:08:07.259Z,11.60
2018-05-17T03:10:35.526Z,11.60
2018-05-17T04:01:46.598Z,11.40
2018-05-17T04:04:25.785Z,11.40
2018-05-17T04:06:53.290Z,11.50
2018-05-17T04:09:21.047Z,11.50
2018-05-17T04:11:48.554Z,11.50
2018-05-17T04:14:16.080Z,11.50
2018-05-17T04:16:43.610Z,11.60
2018-05-17T04:19:11.125Z,11.50
2018-05-17T04:21:38.641Z,11.40
2018-05-17T04:24:06.146Z,11.50
2018-05-17T04:26:33.673Z,11.40
2018-05-17T04:29:01.245Z,11.40
2018-05-17T04:31:28.766Z,11.50
2018-05-17T04:33:57.062Z,11.50
2018-05-17T04:36:24.566Z,11.40
2018-05-17T04:38:52.112Z,11.40
2018-05-17T04:41:19.614Z,11.40
2018-05-17T04:43:47.894Z,11.50
2018-05-17T04:46:16.176Z,11.30
2018-05-17T04:48:43.674Z,11.30
2018-05-17T04:51:11.426Z,11.30
2018-05-17T04:53:39.000Z,11.20
2018-05-17T04:56:06.570Z,11.20
2018-05-17T04:58:34.069Z,11.20
2018-05-17T05:01:02.343Z,11.20
2018-05-17T05:03:30.681Z,11.20
2018-05-17T05:05:58.227Z,11.10
2018-05-17T05:08:25.727Z,11.30
2018-05-17T05:10:53.232Z,11.20
2018-05-17T05:13:20.830Z,11.20
2018-05-17T05:15:48.338Z,11.30
2018-05-17T05:18:16.614Z,11.20
2018-05-17T05:20:44.879Z,11.20
2018-05-17T05:23:13.172Z,11.10
2018-05-17T05:25:40.705Z,11.10
2018-05-17T05:28:08.218Z,11.20
2018-05-17T05:30:35.738Z,11.20
2018-05-17T05:33:04.009Z,11.40
2018-05-17T05:35:31.530Z,11.30
2018-05-17T05:37:59.284Z,11.40
2018-05-17T05:40:26.801Z,11.40
2018-05-17T05:42:54.313Z,11.40
2018-05-17T05:45:21.842Z,11.40
2018-05-17T05:47:49.393Z,11.30
2018-05-17T05:50:16.919Z,11.40
2018-05-17T05:52:44.425Z,11.40
2018-05-17T05:55:11.958Z,11.40
2018-05-17T05:57:40.618Z,11.60
2018-05-17T06:00:08.129Z,11.50
2018-05-17T06:02:35.638Z,11.80
2018-05-17T06:05:03.162Z,11.70
2018-05-17T06:07:31.297Z,11.80
2018-05-17T06:09:59.586Z,11.90
2018-05-17T06:12:27.850Z,12.00
2018-05-17T06:14:56.128Z,12.20
2018-05-17T06:17:24.496Z,12.30
2018-05-17T06:19:51.946Z,12.20
2018-05-17T06:22:19.461Z,12.20
2018-05-17T06:24:46.994Z,12.10
2018-05-17T06:27:14.523Z,12.00
2018-05-17T06:29:42.037Z,12.00
2018-05-17T06:32:09.577Z,12.00
2018-05-17T06:34:37.905Z,12.30
2018-05-17T06:37:05.435Z,12.20
2018-05-17T06:39:32.958Z,12.20
2018-05-17T06:42:01.252Z,12.10
2018-05-17T06:44:29.846Z,12.10
2018-05-17T06:46:57.354Z,12.00
2018-05-17T06:49:24.858Z,12.10
2018-05-17T06:51:53.280Z,11.90
2018-05-17T06:54:20.712Z,11.80
2018-05-17T06:56:48.235Z,12.00
2018-05-17T06:59:15.743Z,12.00
2018-05-17T07:01:43.266Z,11.80
2018-05-17T07:04:11.549Z,11.80
2018-05-17T07:06:39.841Z,11.80
2018-05-17T07:09:07.597Z,11.70
2018-05-17T07:11:35.870Z,11.90
2018-05-17T07:14:04.175Z,11.90
2018-05-17T07:16:31.691Z,11.80
2018-05-17T07:18:59.429Z,11.90
2018-05-17T07:21:26.975Z,11.90
2018-05-17T07:23:54.494Z,11.80
2018-05-17T07:26:22.771Z,12.10
2018-05-17T07:28:50.290Z,12.10
2018-05-17T07:31:17.833Z,12.30
2018-05-17T07:33:45.341Z,12.50
2018-05-17T07:36:13.638Z,12.10
2018-05-17T07:38:41.149Z,12.10
2018-05-17T07:41:08.662Z,12.00
2018-05-17T07:43:36.185Z,11.80
2018-05-17T07:46:03.698Z,11.60
2018-05-17T07:48:31.238Z,11.50
2018-05-17T07:50:58.750Z,11.50
2018-05-17T07:53:26.287Z,11.50
2018-05-17T07:55:53.790Z,11.30
2018-05-17T07:58:21.294Z,11.30
2018-05-17T08:00:48.828Z,11.30
2018-05-17T08:03:16.338Z,11.30
2018-05-17T08:05:43.871Z,11.30
2018-05-17T08:08:11.374Z,11.30
2018-05-17T08:10:38.890Z,11.40
2018-05-17T08:13:06.413Z,11.50
2018-05-17T08:15:34.689Z,11.20
2018-05-17T08:18:02.299Z,11.10
2018-05-17T08:20:29.720Z,11.10
2018-05-17T08:22:57.997Z,11.00
2018-05-17T08:25:25.564Z,11.00
2018-05-17T08:27:53.087Z,11.20
2018-05-17T08:30:21.614Z,11.20
2018-05-17T08:32:49.122Z,11.30
2018-05-17T08:35:16.662Z,11.30
2018-05-17T08:37:44.163Z,11.40
2018-05-17T08:40:11.668Z,11.40
2018-05-17T08:42:39.287Z,11.40
2018-05-17T08:45:06.721Z,11.30
2018-05-17T08:47:34.259Z,11.30
2018-05-17T08:50:01.782Z,11.20
2018-05-17T08:52:30.108Z,11.40
2018-05-17T08:54:57.646Z,11.30
2018-05-17T08:57:25.160Z,11.40
2018-05-17T08:59:53.467Z,11.70
2018-05-17T09:02:20.974Z,11.60
2018-05-17T09:04:48.561Z,11.70
2018-05-17T09:07:16.081Z,11.80
2018-05-17T09:09:43.583Z,11.70
2018-05-17T09:12:11.880Z,11.70
2018-05-17T09:14:39.383Z,11.60
2018-05-17T09:17:06.926Z,11.70
2018-05-17T09:19:34.467Z,11.60
2018-05-17T09:22:01.979Z,11.60
2018-05-17T09:24:29.510Z,11.50
2018-05-17T09:26:57.621Z,11.40
2018-05-17T09:29:25.157Z,11.40
2018-05-17T09:31:52.683Z,11.40
2018-05-17T09:34:20.210Z,11.30
2018-05-17T09:36:48.506Z,11.40
2018-05-17T09:39:16.043Z,11.30
2018-05-17T09:41:43.590Z,11.50
2018-05-17T09:44:11.107Z,11.60
2018-05-17T09:46:38.640Z,11.60
2018-05-17T09:49:06.907Z,11.60
2018-05-17T09:51:35.178Z,11.80
2018-05-17T09:54:02.704Z,11.70
2018-05-17T09:56:30.202Z,12.00
2018-05-17T09:58:58.498Z,12.40
2018-05-17T10:01:26.770Z,12.40
2018-05-17T10:03:55.050Z,12.90
2018-05-17T10:06:23.309Z,13.00
2018-05-17T10:08:50.834Z,12.90
2018-05-17T10:11:18.354Z,12.90
2018-05-17T10:13:45.856Z,12.60
2018-05-17T10:16:13.384Z,12.40
2018-05-17T10:18:40.901Z,12.60
2018-05-17T10:21:08.410Z,12.60
2018-05-17T10:23:35.938Z,12.80
2018-05-17T10:26:04.201Z,12.90
2018-05-17T10:28:31.731Z,12.80
2018-05-17T10:30:59.237Z,13.10
2018-05-17T10:33:26.746Z,13.30
2018-05-17T10:35:54.262Z,13.40
2018-05-17T10:38:21.776Z,13.40
2018-05-17T10:40:49.292Z,13.30
2018-05-17T10:43:16.802Z,13.10
2018-05-17T10:45:44.320Z,13.20
2018-05-17T10:48:11.823Z,13.20
2018-05-17T10:50:39.330Z,13.40
2018-05-17T10:53:06.869Z,13.20
2018-05-17T10:55:35.150Z,13.10
2018-05-17T10:58:03.445Z,12.90
2018-05-17T11:00:31.074Z,12.90
2018-05-17T11:02:58.600Z,13.00
2018-05-17T11:05:26.103Z,13.00
2018-05-17T11:07:54.375Z,13.00
2018-05-17T11:10:21.899Z,12.90
2018-05-17T11:12:49.411Z,12.80
2018-05-17T11:15:16.991Z,12.80
2018-05-17T11:17:44.498Z,12.90
2018-05-17T11:20:12.031Z,12.90
2018-05-17T11:22:39.555Z,12.90
2018-05-17T11:25:07.058Z,13.10
2018-05-17T11:27:34.604Z,13.00
2018-05-17T11:30:02.106Z,12.90
2018-05-17T11:32:29.619Z,12.80
2018-05-17T11:34:57.146Z,12.80
2018-05-17T11:37:25.421Z,13.10
2018-05-17T11:39:53.709Z,13.50
2018-05-17T11:42:21.212Z,13.40
2018-05-17T11:44:48.739Z,13.80
2018-05-17T11:47:16.249Z,14.00
2018-05-17T11:49:43.803Z,13.80
2018-05-17T11:52:11.338Z,13.90
2018-05-17T11:54:38.841Z,13.90
2018-05-17T11:57:06.370Z,13.90
2018-05-17T11:59:33.883Z,13.70
2018-05-17T12:02:02.154Z,13.40
2018-05-17T12:04:29.679Z,13.30
2018-05-17T12:06:57.196Z,13.60
2018-05-17T12:09:24.726Z,13.50
2018-05-17T12:11:53.010Z,14.20
2018-05-17T12:14:21.302Z,14.30
2018-05-17T12:16:48.803Z,14.20
2018-05-17T12:19:16.303Z,14.20
2018-05-17T12:21:44.595Z,14.30
2018-05-17T12:24:12.102Z,14.20
2018-05-17T12:26:39.632Z,14.00
2018-05-17T12:29:07.145Z,14.00
2018-05-17T12:31:35.473Z,14.00
2018-05-17T12:34:03.944Z,13.90
2018-05-17T12:36:31.462Z,14.20
2018-05-17T12:38:59.767Z,14.80
2018-05-17T12:41:27.278Z,14.70
2018-05-17T12:43:55.817Z,15.40
2018-05-17T12:46:23.313Z,15.50
2018-05-17T12:48:50.812Z,14.80
2018-05-17T12:51:19.112Z,14.50
2018-05-17T12:53:46.625Z,14.40
2018-05-17T12:56:14.158Z,14.80
2018-05-17T12:58:41.770Z,15.20
2018-05-17T13:01:09.201Z,15.30
2018-05-17T13:03:36.734Z,15.40
2018-05-17T13:06:04.463Z,15.10
2018-05-17T13:08:32.762Z,14.90
2018-05-17T13:11:00.274Z,14.80
2018-05-17T13:13:27.789Z,14.90
2018-05-17T13:15:55.314Z,15.00
2018-05-17T13:18:23.605Z,15.40
2018-05-17T13:20:51.126Z,15.30
2018-05-17T13:23:18.661Z,15.40
2018-05-17T13:25:46.150Z,15.50
2018-05-17T13:28:13.673Z,15.50
2018-05-17T13:30:41.198Z,15.60
2018-05-17T13:33:09.512Z,15.40
2018-05-17T13:35:38.906Z,15.30
2018-05-17T13:38:06.402Z,15.10
2018-05-17T13:40:33.943Z,15.10
2018-05-17T13:43:01.456Z,15.00
2018-05-17T13:45:29.757Z,15.30
2018-05-17T13:47:57.330Z,15.20
2018-05-17T13:50:25.839Z,15.20
2018-05-17T13:52:53.379Z,15.10
2018-05-17T13:55:20.922Z,15.30
2018-05-17T13:57:48.448Z,15.10
2018-05-17T14:00:16.727Z,14.90
2018-05-17T14:02:45.123Z,15.00
2018-05-17T14:05:12.570Z,14.90
2018-05-17T14:07:40.838Z,15.20
2018-05-17T14:10:08.365Z,15.10
2018-05-17T14:12:35.872Z,15.50
2018-05-17T14:15:04.185Z,15.30
2018-05-17T14:17:31.689Z,15.20
2018-05-17T14:19:59.185Z,15.10
2018-05-17T14:22:26.711Z,15.20
2018-05-17T14:24:54.219Z,15.30
2018-05-17T14:27:21.750Z,15.30
2018-05-17T14:29:49.257Z,15.30
2018-05-17T14:32:16.784Z,15.10
2018-05-17T14:34:44.342Z,15.00
2018-05-17T14:37:12.585Z,15.00
2018-05-17T14:39:40.113Z,14.90
2018-05-17T14:42:07.625Z,15.10
2018-05-17T14:44:35.161Z,15.00
2018-05-17T14:47:02.677Z,14.80
2018-05-17T14:49:30.220Z,14.80
2018-05-17T14:51:57.754Z,14.80
2018-05-17T14:54:26.036Z,15.00
2018-05-17T14:56:54.322Z,15.00
2018-05-17T14:59:21.830Z,14.90
2018-05-17T15:01:49.342Z,15.10
2018-05-17T15:04:16.867Z,15.30
2018-05-17T15:06:44.391Z,15.50
2018-05-17T15:09:11.918Z,15.80
2018-05-17T15:11:40.426Z,15.60
2018-05-17T15:14:08.206Z,15.50
2018-05-17T15:16:35.737Z,15.50
2018-05-17T15:19:03.295Z,15.60
2018-05-17T15:21:30.818Z,15.60
2018-05-17T15:23:58.338Z,15.30
2018-05-17T15:26:26.373Z,15.20
2018-05-17T15:28:54.661Z,15.50
2018-05-17T15:31:22.163Z,15.40
2018-05-17T15:33:49.724Z,15.60
2018-05-17T15:36:17.271Z,15.60
2018-05-17T15:38:44.780Z,15.70
2018-05-17T15:41:13.076Z,15.90
2018-05-17T15:43:40.589Z,15.70
2018-05-17T15:46:08.110Z,15.90
2018-05-17T15:48:35.624Z,16.00
2018-05-17T15:51:03.136Z,16.10
2018-05-17T15:53:30.661Z,16.10
2018-05-17T15:55:58.183Z,16.00
2018-05-17T15:58:25.713Z,16.00
2018-05-17T16:00:53.259Z,16.10
2018-05-17T16:03:20.770Z,16.10
2018-05-17T16:05:48.328Z,16.30
2018-05-17T16:08:15.842Z,16.20
2018-05-17T16:10:43.610Z,16.10
2018-05-17T16:13:11.129Z,15.70
2018-05-17T16:15:38.716Z,15.70
2018-05-17T16:18:06.199Z,15.80
2018-05-17T16:20:33.707Z,15.50
2018-05-17T16:23:01.235Z,15.20
2018-05-17T16:25:28.730Z,15.00
2018-05-17T16:27:57.014Z,14.90
2018-05-17T16:30:24.537Z,14.80
2018-05-17T16:32:52.032Z,14.80
2018-05-17T16:35:20.338Z,14.90
2018-05-17T16:37:47.844Z,14.80
2018-05-17T16:40:16.592Z,14.80
2018-05-17T16:42:44.127Z,14.70
2018-05-17T16:45:12.898Z,14.90
2018-05-17T16:47:40.421Z,14.90
2018-05-17T16:50:07.928Z,15.10
2018-05-17T16:52:35.486Z,15.20
2018-05-17T16:55:02.977Z,15.20
2018-05-17T16:57:30.686Z,15.20
2018-05-17T16:59:58.796Z,15.10
2018-05-17T17:02:27.746Z,15.10
2018-05-17T17:04:55.332Z,15.00
2018-05-17T17:07:22.809Z,14.90
2018-05-17T17:09:51.088Z,14.70
2018-05-17T17:12:19.370Z,14.60
2018-05-17T17:14:46.886Z,14.50
2018-05-17T17:17:14.411Z,14.40
2018-05-17T17:19:41.923Z,14.30
2018-05-17T17:22:09.446Z,14.20
2018-05-17T17:24:36.961Z,14.10
2018-05-17T17:27:05.225Z,14.10
2018-05-17T17:29:33.514Z,13.90
2018-05-17T17:32:01.777Z,13.90
2018-05-17T17:34:29.301Z,13.80
2018-05-17T17:36:56.798Z,13.80
2018-05-17T17:39:25.125Z,13.80
2018-05-17T17:41:53.694Z,13.70
2018-05-17T17:44:21.235Z,13.70
2018-05-17T17:46:48.784Z,13.80
2018-05-17T17:49:17.050Z,13.80
2018-05-17T17:51:44.597Z,13.70
2018-05-17T17:54:12.101Z,13.80
2018-05-17T17:56:40.375Z,13.80
2018-05-17T17:59:07.903Z,13.70
2018-05-17T18:01:36.067Z,13.70
2018-05-17T18:04:03.599Z,13.70
2018-05-17T18:06:31.127Z,13.70
2018-05-17T18:08:58.647Z,13.70
2018-05-17T18:11:26.206Z,13.60
2018-05-17T18:13:53.716Z,13.70
2018-05-17T18:16:21.245Z,13.70
2018-05-17T18:18:49.658Z,13.70
2018-05-17T18:21:17.182Z,13.70
2018-05-17T18:23:44.713Z,13.70
2018-05-17T18:26:12.246Z,13.70
2018-05-17T18:28:39.757Z,13.80
2018-05-17T18:31:07.281Z,13.60
2018-05-17T18:33:34.812Z,13.60
2018-05-17T18:36:02.415Z,13.70
2018-05-17T18:38:30.657Z,13.50
2018-05-17T18:40:58.173Z,13.40
2018-05-17T18:43:25.696Z,13.40
2018-05-17T18:45:53.205Z,13.30
2018-05-17T18:48:20.735Z,13.40
2018-05-17T18:50:48.246Z,13.30
2018-05-17T18:53:15.756Z,13.30
2018-05-17T18:55:43.274Z,13.20
2018-05-17T18:58:10.794Z,13.10
2018-05-17T19:00:38.334Z,13.00
2018-05-17T19:03:05.840Z,13.00
2018-05-17T19:05:34.114Z,13.00
2018-05-17T19:08:01.661Z,12.90
2018-05-17T19:10:29.959Z,13.00
2018-05-17T19:12:57.475Z,12.90
2018-05-17T19:15:25.050Z,13.00
2018-05-17T19:17:52.556Z,12.90
2018-05-17T19:20:20.187Z,12.90
2018-05-17T19:22:47.658Z,12.90
2018-05-17T19:25:15.172Z,12.90
2018-05-17T19:27:42.700Z,12.90
2018-05-17T19:30:10.361Z,12.80
2018-05-17T19:32:37.891Z,12.80
2018-05-17T19:35:06.249Z,12.70
2018-05-17T19:37:33.775Z,12.60
2018-05-17T19:40:02.511Z,12.70
2018-05-17T19:42:30.153Z,12.60
2018-05-17T19:44:58.511Z,12.50
2018-05-17T19:47:26.294Z,12.40
2018-05-17T19:49:53.886Z,12.50
2018-05-17T19:52:22.272Z,12.50
2018-05-17T19:54:50.587Z,12.40
2018-05-17T19:57:19.478Z,12.40
2018-05-17T19:59:47.072Z,12.40
2018-05-17T20:02:14.688Z,12.40
2018-05-17T20:04:42.230Z,12.30
2018-05-17T20:07:09.755Z,12.30
2018-05-17T20:09:37.291Z,12.40
2018-05-17T20:12:04.814Z,12.40
2018-05-17T20:14:32.345Z,12.40
2018-05-17T20:16:59.874Z,12.30
2018-05-17T20:19:27.388Z,12.30
2018-05-17T20:21:56.698Z,12.40
2018-05-17T20:30:34.391Z,12.20
2018-05-17T20:33:01.938Z,12.20
2018-05-17T20:35:29.503Z,12.20
2018-05-17T20:37:57.008Z,12.10
2018-05-17T20:40:24.522Z,12.10
2018-05-17T20:42:52.066Z,12.10
2018-05-17T20:45:19.583Z,12.10
2018-05-17T20:47:47.857Z,12.00
2018-05-17T20:50:16.133Z,12.00
2018-05-17T20:52:44.442Z,12.00
2018-05-17T20:55:12.008Z,12.00
2018-05-17T20:57:40.264Z,12.00
2018-05-17T21:00:07.794Z,11.90
2018-05-17T21:02:35.316Z,12.00
2018-05-17T21:05:02.845Z,12.00
2018-05-17T21:07:30.391Z,12.00
2018-05-17T21:09:58.667Z,12.00
2018-05-17T21:12:26.946Z,12.00
2018-05-17T21:14:55.243Z,12.00
2018-05-17T21:17:22.778Z,11.90
2018-05-17T21:19:51.090Z,12.10
2018-05-17T21:22:18.595Z,12.00
2018-05-17T21:24:46.118Z,12.00
2018-05-17T21:27:13.721Z,12.00
2018-05-17T21:29:41.195Z,11.90
2018-05-17T21:32:08.708Z,11.90
2018-05-17T21:34:36.221Z,11.90
2018-05-17T21:37:04.512Z,12.00
2018-05-17T21:39:32.057Z,11.90
2018-05-17T21:42:00.347Z,11.90
2018-05-17T21:44:27.851Z,11.80
2018-05-17T21:46:55.397Z,11.90
2018-05-17T21:49:22.904Z,11.80
2018-05-17T21:51:50.411Z,11.80
2018-05-17T21:54:17.940Z,11.80
2018-05-17T21:56:45.450Z,11.80
2018-05-17T21:59:12.969Z,11.80
2018-05-17T22:01:40.478Z,11.90
2018-05-17T22:04:08.007Z,11.90
2018-05-17T22:06:35.511Z,11.90
2018-05-17T22:09:03.836Z,11.80
2018-05-17T22:11:31.372Z,11.70
2018-05-17T22:13:59.647Z,11.80
2018-05-17T22:16:27.183Z,11.80
2018-05-17T22:18:54.690Z,11.80
2018-05-17T22:21:22.202Z,11.70
2018-05-17T22:23:49.734Z,11.80
2018-05-17T22:26:17.233Z,11.70
2018-05-17T22:28:44.762Z,11.70
2018-05-17T22:31:12.489Z,11.70
2018-05-17T22:33:39.999Z,11.60
2018-05-17T22:36:07.525Z,11.60
2018-05-17T22:38:35.049Z,11.60
2018-05-17T22:41:03.333Z,11.50
2018-05-17T22:43:31.603Z,11.60
2018-05-17T22:46:00.119Z,11.60
2018-05-17T22:48:30.892Z,11.50
2018-05-17T22:50:58.629Z,11.60
2018-05-17T22:53:26.927Z,11.50
2018-05-17T22:55:54.450Z,11.40
2018-05-17T22:58:32.976Z,11.50
2018-05-17T23:01:00.487Z,11.40
2018-05-17T23:03:28.030Z,11.40
2018-05-17T23:05:55.524Z,11.40
2018-05-17T23:08:23.793Z,11.30
2018-05-17T23:10:52.107Z,11.20
2018-05-17T23:13:19.621Z,11.10
2018-05-17T23:15:48.134Z,11.20
2018-05-17T23:18:15.631Z,11.10
2018-05-17T23:20:43.129Z,11.20
2018-05-17T23:23:11.425Z,11.10
2018-05-17T23:25:38.929Z,11.00
2018-05-17T23:28:06.457Z,11.00
2018-05-17T23:30:33.962Z,11.00
2018-05-17T23:33:01.483Z,11.00
2018-05-17T23:35:28.986Z,11.10
2018-05-17T23:37:56.489Z,11.10
2018-05-17T23:40:35.943Z,11.00
2018-05-17T23:43:04.206Z,10.90
2018-05-17T23:45:31.726Z,10.90
2018-05-17T23:47:59.239Z,11.00
2018-05-17T23:50:26.759Z,11.10
2018-05-17T23:52:55.054Z,11.00
2018-05-17T23:55:22.569Z,10.90
2018-05-17T23:57:50.102Z,10.90
